Elettra — H9AK — position and weather

sailwx.info

Track history (hours):
 
Tides and Currents Weather Stations Pressure Air Temp Water Temp Dewpoint Dewpoint Depression Visibility Wind Speed Wind Dir Waves Ship Positions

Elettra

Last reported at 2017-May-15 18:14 UTC. Time now 2017-May-26 22:52 UTC.
Position N 32°29' E 125°49'.
Warning: this ship's position is 11 days out of date.

Length 254 m; draft 13.5 m.

Type: Cargo ship. MMSI: 371188000.

Date/timePositionNaut miles runAvg speedWind from/ knotsBaromVisibWave heightAir tempDewpointWater temp
2017-May-15 18:14N 32°29' E 125°49'12 9.1
2017-May-15 16:55N 32°17' E 125°53'511.3
2017-May-15 16:30N 32°13' E 125°56'4711.7
2017-May-15 12:33N 31°30' E 126°16'111.3
2017-May-15 12:27N 31°29' E 126°17'811.2
2017-May-15 11:43N 31°22' E 126°21'211.0
2017-May-15 11:30N 31°19' E 126°22'610.6
2017-May-15 10:59N 31°14' E 126°24'510.4
2017-May-15 10:31N 31°10' E 126°27'510.2
2017-May-15 10:00N 31°05' E 126°29'1110.1
2017-May-15 08:55N 30°55' E 126°35'  
Track history (hours):
 
Tides and Currents Weather Stations Pressure Air Temp Water Temp Dewpoint Dewpoint Depression Visibility Wind Speed Wind Dir Waves Ship Positions

Elettra

Last reported at 2017-May-15 18:14 UTC. Time now 2017-May-26 22:52 UTC.
Position N 32°29' E 125°49'.
Warning: this ship's position is 11 days out of date.

Length 254 m; draft 13.5 m.

Type: Cargo ship. MMSI: 371188000.

Date/timePositionNaut miles runAvg speedWind from/ knotsBaromVisibWave heightAir tempDewpointWater temp
2017-May-15 18:14N 32°29' E 125°49'12 9.1
2017-May-15 16:55N 32°17' E 125°53'511.3
2017-May-15 16:30N 32°13' E 125°56'4711.7
2017-May-15 12:33N 31°30' E 126°16'111.3
2017-May-15 12:27N 31°29' E 126°17'811.2
2017-May-15 11:43N 31°22' E 126°21'211.0
2017-May-15 11:30N 31°19' E 126°22'610.6
2017-May-15 10:59N 31°14' E 126°24'510.4
2017-May-15 10:31N 31°10' E 126°27'510.2
2017-May-15 10:00N 31°05' E 126°29'1110.1
2017-May-15 08:55N 30°55' E 126°35'  

Dump ship's entire track history